createdAt,value
2018-01-06T00:02:05.281Z,91.10
2018-01-06T00:04:33.346Z,91.10
2018-01-06T00:07:02.187Z,91.30
2018-01-06T00:09:30.544Z,91.30
2018-01-06T00:11:58.610Z,91.30
2018-01-06T00:14:26.680Z,91.40
2018-01-06T00:16:54.780Z,91.30
2018-01-06T00:19:22.850Z,91.40
2018-01-06T00:21:50.915Z,91.50
2018-01-06T00:24:19.001Z,91.40
2018-01-06T00:26:47.078Z,92.00
2018-01-06T00:29:15.134Z,92.40
2018-01-06T00:31:43.205Z,92.40
2018-01-06T00:34:11.275Z,92.60
2018-01-06T00:36:39.345Z,92.80
2018-01-06T00:39:07.407Z,92.80
2018-01-06T00:41:35.904Z,92.90
2018-01-06T00:44:04.790Z,92.70
2018-01-06T00:46:33.558Z,92.60
2018-01-06T00:49:01.851Z,92.40
2018-01-06T00:51:30.198Z,92.60
2018-01-06T00:53:58.255Z,92.50
2018-01-06T00:56:26.318Z,92.30
2018-01-06T00:58:54.404Z,92.20
2018-01-06T01:01:22.521Z,92.20
2018-01-06T01:03:50.581Z,92.10
2018-01-06T01:06:18.667Z,91.70
2018-01-06T01:08:46.739Z,91.60
2018-01-06T01:11:14.801Z,91.50
2018-01-06T01:13:42.995Z,91.40
2018-01-06T01:16:11.833Z,91.30
2018-01-06T01:18:39.890Z,91.30
2018-01-06T01:21:07.972Z,91.20
2018-01-06T01:23:36.075Z,91.20
2018-01-06T01:26:04.148Z,90.90
2018-01-06T01:28:32.214Z,90.90
2018-01-06T01:31:00.294Z,91.00
2018-01-06T01:33:28.370Z,91.10
2018-01-06T01:35:56.430Z,91.00
2018-01-06T01:38:24.511Z,90.90
2018-01-06T01:40:52.569Z,90.60
2018-01-06T01:43:21.141Z,90.60
2018-01-06T01:45:49.203Z,90.70
2018-01-06T01:48:17.300Z,90.90
2018-01-06T01:50:46.246Z,90.90
2018-01-06T01:53:14.315Z,90.70
2018-01-06T01:55:42.365Z,90.90
2018-01-06T01:58:10.504Z,90.90
2018-01-06T02:00:38.563Z,91.10
2018-01-06T02:03:06.617Z,90.80
2018-01-06T02:05:34.673Z,90.90
2018-01-06T02:08:02.753Z,91.00
2018-01-06T02:10:30.908Z,91.10
2018-01-06T02:12:59.651Z,91.00
2018-01-06T02:15:28.514Z,91.10
2018-01-06T02:17:57.366Z,91.10
2018-01-06T02:20:25.434Z,91.10
2018-01-06T02:22:53.507Z,91.00
2018-01-06T02:25:21.621Z,90.90
2018-01-06T02:27:49.682Z,91.10
2018-01-06T02:30:17.862Z,91.10
2018-01-06T02:32:45.931Z,91.20
2018-01-06T02:35:14.570Z,91.50
2018-01-06T02:37:42.626Z,91.50
2018-01-06T02:40:11.459Z,91.30
2018-01-06T02:42:39.522Z,91.30
2018-01-06T02:45:07.584Z,91.20
2018-01-06T02:47:35.671Z,91.20
2018-01-06T02:50:03.763Z,91.40
2018-01-06T02:52:31.832Z,91.40
2018-01-06T02:54:59.889Z,91.40
2018-01-06T02:57:27.954Z,91.40
2018-01-06T02:59:56.035Z,91.50
2018-01-06T03:02:24.091Z,91.30
2018-01-06T03:04:52.144Z,91.20
2018-01-06T03:07:20.461Z,91.30
2018-01-06T03:09:48.581Z,91.60
2018-01-06T03:12:16.638Z,91.60
2018-01-06T03:14:45.474Z,91.80
2018-01-06T03:17:13.530Z,91.80
2018-01-06T03:19:41.626Z,91.90
2018-01-06T03:22:09.691Z,91.90
2018-01-06T03:24:37.754Z,91.80
2018-01-06T03:27:06.622Z,91.80
2018-01-06T03:29:34.680Z,91.80
2018-01-06T03:32:03.334Z,91.80
2018-01-06T03:34:31.394Z,91.70
2018-01-06T03:36:59.745Z,91.90
2018-01-06T03:39:27.811Z,91.60
2018-01-06T03:41:55.910Z,92.00
2018-01-06T03:44:24.137Z,92.10
2018-01-06T03:46:52.192Z,92.20
2018-01-06T03:49:20.249Z,92.00
2018-01-06T03:51:49.098Z,91.80
2018-01-06T03:54:17.177Z,91.80
2018-01-06T03:56:45.245Z,91.90
2018-01-06T03:59:13.321Z,92.00
2018-01-06T04:01:41.377Z,92.10
2018-01-06T04:04:09.483Z,92.10
2018-01-06T04:06:38.355Z,92.30
2018-01-06T04:09:06.446Z,92.20
2018-01-06T04:11:34.506Z,92.30
2018-01-06T04:14:02.554Z,92.20
2018-01-06T04:16:30.626Z,92.10
2018-01-06T04:18:58.695Z,91.90
2018-01-06T04:21:27.254Z,91.60
2018-01-06T04:23:55.331Z,91.60
2018-01-06T04:26:23.401Z,91.40
2018-01-06T04:28:51.598Z,91.20
2018-01-06T04:31:19.662Z,91.30
2018-01-06T04:33:47.735Z,91.60
2018-01-06T04:36:15.800Z,91.60
2018-01-06T04:38:43.872Z,92.00
2018-01-06T04:41:12.357Z,92.10
2018-01-06T04:43:40.427Z,92.30
2018-01-06T04:46:08.491Z,92.20
2018-01-06T04:48:36.584Z,92.20
2018-01-06T04:51:04.645Z,92.50
2018-01-06T04:53:32.704Z,92.30
2018-01-06T04:56:00.772Z,92.50
2018-01-06T04:58:28.829Z,92.50
2018-01-06T05:00:56.906Z,92.40
2018-01-06T05:03:25.314Z,92.10
2018-01-06T05:05:53.469Z,92.30
2018-01-06T05:08:22.150Z,92.40
2018-01-06T05:10:50.182Z,92.60
2018-01-06T05:13:18.248Z,92.50
2018-01-06T05:15:46.335Z,92.50
2018-01-06T05:18:14.409Z,92.50
2018-01-06T05:20:42.579Z,92.30
2018-01-06T05:23:10.640Z,92.20
2018-01-06T05:25:38.692Z,92.20
2018-01-06T05:28:07.589Z,91.90
2018-01-06T05:30:35.850Z,92.00
2018-01-06T05:33:04.685Z,91.80
2018-01-06T05:35:32.744Z,91.80
2018-01-06T05:38:00.845Z,92.10
2018-01-06T05:40:28.906Z,92.10
2018-01-06T05:42:56.978Z,92.20
2018-01-06T05:45:25.054Z,92.30
2018-01-06T05:47:53.133Z,92.70
2018-01-06T05:50:21.199Z,92.80
2018-01-06T05:52:50.045Z,93.10
2018-01-06T05:55:18.155Z,93.30
2018-01-06T05:57:46.210Z,93.10
2018-01-06T06:00:14.307Z,93.30
2018-01-06T06:02:42.783Z,93.30
2018-01-06T06:05:10.849Z,93.20
2018-01-06T06:07:38.933Z,93.20
2018-01-06T06:10:06.990Z,93.10
2018-01-06T06:12:35.047Z,93.20
2018-01-06T06:15:03.109Z,93.30
2018-01-06T06:17:31.170Z,93.10
2018-01-06T06:19:59.228Z,93.00
2018-01-06T06:22:27.355Z,93.00
2018-01-06T06:24:55.423Z,92.70
2018-01-06T06:27:24.063Z,92.90
2018-01-06T06:29:52.163Z,92.80
2018-01-06T06:32:20.218Z,92.70
2018-01-06T06:34:48.282Z,92.60
2018-01-06T06:37:17.491Z,92.80
2018-01-06T06:39:45.543Z,92.80
2018-01-06T06:42:13.610Z,92.80
2018-01-06T06:44:41.675Z,92.80
2018-01-06T06:47:09.795Z,92.80
2018-01-06T06:49:37.965Z,92.70
2018-01-06T06:52:06.028Z,92.60
2018-01-06T06:54:34.616Z,92.80
2018-01-06T06:57:02.676Z,92.50
2018-01-06T06:59:30.745Z,92.50
2018-01-06T07:01:58.797Z,92.60
2018-01-06T07:04:26.899Z,92.70
2018-01-06T07:06:54.966Z,93.00
2018-01-06T07:09:23.023Z,92.80
2018-01-06T07:11:51.095Z,92.80
2018-01-06T07:14:19.150Z,92.30
2018-01-06T07:16:47.223Z,92.00
2018-01-06T07:19:15.285Z,92.00
2018-01-06T07:21:43.356Z,92.30
2018-01-06T07:24:11.462Z,92.30
2018-01-06T07:26:39.538Z,92.30
2018-01-06T07:29:07.630Z,92.70
2018-01-06T07:31:36.479Z,93.10
2018-01-06T07:34:04.565Z,93.10
2018-01-06T07:36:32.625Z,93.10
2018-01-06T07:39:00.807Z,93.30
2018-01-06T07:41:28.890Z,93.40
2018-01-06T07:43:57.026Z,93.30
2018-01-06T07:46:25.139Z,93.20
2018-01-06T07:48:53.213Z,93.10
2018-01-06T07:51:21.267Z,92.80
2018-01-06T07:53:50.051Z,93.00
2018-01-06T07:56:18.221Z,92.80
2018-01-06T07:58:46.299Z,93.10
2018-01-06T08:01:14.375Z,92.50
2018-01-06T08:03:42.443Z,92.50
2018-01-06T08:06:10.505Z,92.30
2018-01-06T08:08:38.589Z,92.30
2018-01-06T08:11:06.659Z,92.30
2018-01-06T08:13:34.717Z,92.20
2018-01-06T08:16:02.793Z,92.00
2018-01-06T08:18:30.858Z,91.90
2018-01-06T08:20:58.935Z,91.70
2018-01-06T08:23:27.093Z,91.80
2018-01-06T08:25:55.234Z,91.60
2018-01-06T08:28:23.295Z,91.60
2018-01-06T08:30:51.965Z,91.50
2018-01-06T08:33:20.048Z,91.30
2018-01-06T08:35:48.118Z,90.90
2018-01-06T08:38:16.178Z,90.60
2018-01-06T08:40:44.241Z,90.90
2018-01-06T08:43:13.113Z,90.70
2018-01-06T08:45:41.171Z,90.70
2018-01-06T08:48:09.248Z,90.60
2018-01-06T08:50:37.324Z,90.70
2018-01-06T08:53:05.398Z,90.50
2018-01-06T08:55:34.262Z,90.50
2018-01-06T08:58:02.342Z,90.50
2018-01-06T09:00:30.412Z,90.40
2018-01-06T09:02:59.228Z,90.10
2018-01-06T09:05:28.098Z,90.00
2018-01-06T09:07:56.134Z,90.00
2018-01-06T09:10:24.194Z,89.90
2018-01-06T09:12:52.962Z,90.30
2018-01-06T09:15:21.038Z,90.10
2018-01-06T09:17:49.118Z,90.00
2018-01-06T09:20:17.194Z,88.70
2018-01-06T09:22:45.264Z,88.20
2018-01-06T09:25:14.093Z,88.30
2018-01-06T09:27:42.184Z,87.70
2018-01-06T09:30:11.055Z,87.70
2018-01-06T09:32:39.136Z,87.70
2018-01-06T09:35:07.989Z,86.00
2018-01-06T09:37:36.459Z,85.90
2018-01-06T09:40:04.527Z,84.80
2018-01-06T09:42:32.624Z,85.00
2018-01-06T09:45:00.691Z,85.00
2018-01-06T09:47:28.835Z,84.40
2018-01-06T09:49:57.296Z,84.30
2018-01-06T09:52:25.387Z,84.00
2018-01-06T09:54:53.482Z,84.40
2018-01-06T09:57:21.550Z,84.70
2018-01-06T09:59:49.630Z,84.90
2018-01-06T10:02:17.686Z,84.90
2018-01-06T10:04:45.753Z,84.00
2018-01-06T10:07:13.823Z,84.30
2018-01-06T10:09:41.894Z,85.10
2018-01-06T10:12:09.966Z,83.40
2018-01-06T10:14:38.030Z,83.80
2018-01-06T10:17:06.121Z,83.20
2018-01-06T10:19:34.191Z,82.40
2018-01-06T10:22:02.250Z,81.80
2018-01-06T10:24:30.322Z,80.90
2018-01-06T10:26:58.417Z,81.30
2018-01-06T10:29:26.496Z,80.50
2018-01-06T10:31:55.366Z,78.50
2018-01-06T10:34:23.444Z,78.20
2018-01-06T10:36:51.542Z,77.40
2018-01-06T10:39:19.584Z,75.90
2018-01-06T10:41:47.745Z,76.50
2018-01-06T10:44:15.833Z,76.10
2018-01-06T10:46:43.901Z,75.40
2018-01-06T10:49:12.620Z,74.40
2018-01-06T10:51:40.694Z,75.80
2018-01-06T10:54:08.748Z,75.50
2018-01-06T10:56:37.585Z,76.10
2018-01-06T10:59:06.606Z,75.10
2018-01-06T11:01:40.468Z,74.90
2018-01-06T11:04:08.513Z,73.10
2018-01-06T11:06:36.653Z,72.40
2018-01-06T11:09:04.744Z,72.50
2018-01-06T11:11:33.603Z,73.80
2018-01-06T11:14:01.673Z,73.70
2018-01-06T11:16:29.746Z,73.50
2018-01-06T11:18:57.918Z,69.70
2018-01-06T11:21:26.035Z,68.90
2018-01-06T11:23:54.918Z,65.10
2018-01-06T11:26:23.749Z,65.00
2018-01-06T11:28:51.826Z,65.00
2018-01-06T11:31:19.906Z,65.30
2018-01-06T11:33:47.979Z,65.60
2018-01-06T11:36:16.054Z,67.50
2018-01-06T11:38:44.220Z,69.70
2018-01-06T11:41:12.318Z,70.20
2018-01-06T11:43:40.375Z,69.30
2018-01-06T11:46:08.433Z,70.50
2018-01-06T11:48:36.517Z,70.10
2018-01-06T11:51:04.577Z,70.00
2018-01-06T11:53:32.656Z,70.60
2018-01-06T11:56:01.437Z,70.80
2018-01-06T11:58:29.502Z,70.60
2018-01-06T12:00:57.615Z,71.70
2018-01-06T12:03:26.474Z,68.80
2018-01-06T12:05:54.633Z,68.70
2018-01-06T12:08:22.708Z,71.20
2018-01-06T12:10:50.778Z,67.20
2018-01-06T12:13:18.843Z,67.40
2018-01-06T12:15:47.227Z,67.00
2018-01-06T12:18:15.300Z,68.00
2018-01-06T12:20:43.435Z,67.50
2018-01-06T12:23:11.494Z,69.50
2018-01-06T12:25:39.606Z,70.20
2018-01-06T12:28:07.686Z,68.90
2018-01-06T12:30:35.845Z,67.60
2018-01-06T12:33:03.918Z,71.10
2018-01-06T12:35:32.000Z,67.80
2018-01-06T12:38:00.166Z,67.20
2018-01-06T12:40:28.253Z,65.50
2018-01-06T12:42:56.329Z,65.00
2018-01-06T12:45:24.411Z,64.90
2018-01-06T12:47:53.266Z,66.00
2018-01-06T12:50:21.341Z,65.90
2018-01-06T12:52:49.418Z,65.00
2018-01-06T12:55:17.489Z,63.60
2018-01-06T12:57:45.561Z,63.90
2018-01-06T13:00:13.632Z,64.40
2018-01-06T13:02:41.706Z,63.60
2018-01-06T13:05:10.071Z,62.20
2018-01-06T13:07:38.250Z,60.90
2018-01-06T13:10:06.910Z,60.50
2018-01-06T13:12:34.995Z,60.00
2018-01-06T13:15:03.061Z,60.40
2018-01-06T13:17:31.152Z,58.30
2018-01-06T13:19:59.221Z,57.00
2018-01-06T13:22:27.302Z,57.50
2018-01-06T13:24:56.148Z,59.20
2018-01-06T13:27:24.213Z,59.20
2018-01-06T13:29:52.290Z,60.20
2018-01-06T13:32:20.742Z,62.50
2018-01-06T13:34:48.812Z,62.90
2018-01-06T13:37:16.941Z,62.70
2018-01-06T13:39:44.960Z,63.60
2018-01-06T13:42:13.061Z,63.50
2018-01-06T13:44:41.153Z,63.00
2018-01-06T13:47:09.217Z,62.60
2018-01-06T13:49:37.313Z,62.10
2018-01-06T13:52:06.179Z,61.90
2018-01-06T13:54:34.418Z,61.90
2018-01-06T13:57:02.503Z,63.40
2018-01-06T13:59:30.573Z,63.10
2018-01-06T14:01:58.655Z,63.20
2018-01-06T14:04:26.775Z,63.50
2018-01-06T14:06:54.867Z,63.70
2018-01-06T14:09:22.934Z,64.70
2018-01-06T14:11:51.060Z,64.80
2018-01-06T14:14:19.145Z,64.80
